Exeland, Wisconsin
Current Conditions -  °F | °C
As of 6:15 PM on Friday 19 Dec 2014 (Local Time) from KRCX Reporting Station
Overcast Overcast  
Wind Chill: 19°   Ceiling: 1000
Heat Index: 26°   Visibility: 10mi
Dew Point: 22°   Wind: 6mph
Humidity: 88%   Direction: 150°SSE
Pressure: 30.25"   Gusts: NA
Location:  45.67°N, 91.24°W
Report Text: KRCX 200015Z AUTO 15005KT 10SM BKN010 OVC020 M04/M05 A3025 RMK AO2 T10361054
Loading
Personal Weather Stations






























Interactive Weather Map New forecast layout! Learn more

10-Day Weather Forecast

Advertisements
Track Severe Weather on mobile